Time;durP1;ratioP1;P1;durP2;ratioP2;P2;SDS_P1;SDS_P2;PMS_P1;PMS_P2;Temp;Humidity;BMP_temperature;BMP_pressure;BME280_temperature;BME280_humidity;BME280_pressure;Samples;Min_cycle;Max_cycle;Signal;HPM_P1;HPM_P2
2022/11/09 00:01:44;;;;;;;215.05;108.90;;;5.60;99.90;;;;;;5051765;28;20041;-76
2022/11/09 00:04:10;;;;;;;210.27;107.95;;;5.50;99.90;;;;;;5051456;28;20032;-75
2022/11/09 00:06:36;;;;;;;214.02;105.07;;;5.40;99.90;;;;;;5050829;28;20039;-75
2022/11/09 00:09:05;;;;;;;197.15;98.50;;;5.50;99.90;;;;;;5031709;28;20045;-75
2022/11/09 00:11:31;;;;;;;175.18;91.18;;;5.50;99.90;;;;;;5031583;28;20391;-75
2022/11/09 00:13:57;;;;;;;171.98;85.90;;;5.60;99.90;;;;;;5031603;28;20026;-75
2022/11/09 00:16:23;;;;;;;184.90;94.40;;;5.80;99.90;;;;;;5089441;28;20035;-75
2022/11/09 00:18:50;;;;;;;187.85;97.18;;;5.60;99.90;;;;;;5114597;28;20024;-75
2022/11/09 00:21:21;;;;;;;197.30;97.85;;;5.50;99.90;;;;;;5114266;28;20110;-75
2022/11/09 00:23:48;;;;;;;210.57;106.53;;;5.40;99.90;;;;;;5114618;28;20047;-77
2022/11/09 00:26:16;;;;;;;172.65;89.60;;;5.30;99.90;;;;;;5096171;28;20035;-76
2022/11/09 00:28:42;;;;;;;196.13;98.50;;;5.30;99.90;;;;;;5114503;28;20026;-75
2022/11/09 00:31:14;;;;;;;204.10;105.70;;;5.40;99.90;;;;;;5117601;28;20110;-75
2022/11/09 00:33:40;;;;;;;179.05;93.97;;;5.40;99.90;;;;;;5100291;28;20118;-75
2022/11/09 00:36:09;;;;;;;187.52;93.57;;;5.30;99.90;;;;;;5083414;28;20058;-75
2022/11/09 00:38:36;;;;;;;175.98;92.82;;;5.30;99.90;;;;;;5100462;28;20020;-75
2022/11/09 00:41:04;;;;;;;183.65;95.50;;;5.10;99.90;;;;;;5118460;28;20059;-75
2022/11/09 00:43:31;;;;;;;174.38;89.20;;;5.10;99.90;;;;;;5118441;28;20034;-75
2022/11/09 00:45:57;;;;;;;182.70;93.80;;;5.20;99.90;;;;;;5100097;28;20036;-75
2022/11/09 00:48:23;;;;;;;168.20;87.63;;;5.10;99.90;;;;;;5118393;28;20385;-75
2022/11/09 00:50:50;;;;;;;163.90;88.45;;;5.20;99.90;;;;;;5118367;28;20481;-75
2022/11/09 00:53:17;;;;;;;166.15;83.78;;;5.20;99.90;;;;;;5118060;28;20114;-76
2022/11/09 00:56:09;;;;;;;153.63;79.40;;;5.30;99.90;;;;;;5100126;28;20480;-75
2022/11/09 00:58:37;;;;;;;116.97;63.17;;;5.40;99.90;;;;;;5118408;28;20047;-75
2022/11/09 01:01:10;;;;;;;121.82;64.47;;;5.30;99.90;;;;;;5099697;28;20034;-75
2022/11/09 01:03:36;;;;;;;117.60;62.92;;;5.30;99.90;;;;;;5100173;28;20384;-75
2022/11/09 01:06:03;;;;;;;123.40;69.72;;;5.20;99.90;;;;;;5117840;28;20085;-75
2022/11/09 01:08:29;;;;;;;132.07;65.43;;;4.90;99.90;;;;;;5134411;27;20365;-77
2022/11/09 01:10:55;;;;;;;128.15;66.75;;;4.90;99.90;;;;;;5120180;27;20062;-75
2022/11/09 01:13:22;;;;;;;158.20;83.22;;;4.80;99.90;;;;;;5120088;27;20039;-75
2022/11/09 01:15:51;;;;;;;181.30;91.30;;;4.70;99.90;;;;;;5119719;27;20058;-75
2022/11/09 01:18:19;;;;;;;195.23;95.88;;;4.70;99.90;;;;;;5138232;27;20034;-75
2022/11/09 01:20:47;;;;;;;220.65;101.63;;;4.70;99.90;;;;;;5119592;27;20492;-76
2022/11/09 01:23:14;;;;;;;198.68;97.53;;;4.50;99.90;;;;;;5119669;27;20034;-75
2022/11/09 01:25:41;;;;;;;191.43;94.70;;;4.50;99.90;;;;;;5138664;27;20050;-75
2022/11/09 01:28:09;;;;;;;188.60;93.47;;;4.60;99.90;;;;;;5137953;27;20023;-75
2022/11/09 01:30:37;;;;;;;186.98;92.85;;;4.60;99.90;;;;;;5138252;27;20153;-75
2022/11/09 01:33:04;;;;;;;176.50;88.18;;;4.60;99.90;;;;;;5119379;27;20191;-75
2022/11/09 01:35:34;;;;;;;169.02;85.32;;;4.60;99.90;;;;;;5119585;27;20539;-75
2022/11/09 01:38:01;;;;;;;185.00;88.78;;;4.70;99.90;;;;;;5119613;27;20472;-75
2022/11/09 01:40:28;;;;;;;175.20;89.05;;;4.70;99.90;;;;;;5137996;27;20030;-75
2022/11/09 01:42:54;;;;;;;171.48;86.53;;;4.70;99.90;;;;;;5137934;27;20053;-75
2022/11/09 01:45:25;;;;;;;181.63;89.40;;;4.70;99.90;;;;;;5137731;27;20023;-75
2022/11/09 01:48:24;;;;;;;191.55;92.10;;;4.70;99.90;;;;;;5118972;27;20031;-75
2022/11/09 01:50:55;;;;;;;202.65;94.40;;;4.70;99.90;;;;;;5115267;27;20035;-75
2022/11/09 01:53:28;;;;;;;195.57;93.38;;;4.70;99.90;;;;;;5119333;27;20048;-75
2022/11/09 01:55:59;;;;;;;184.65;92.70;;;4.70;99.90;;;;;;5137892;27;20020;-75
2022/11/09 01:58:30;;;;;;;;;;;4.70;99.90;;;;;;5119600;27;20050;-75
2022/11/09 02:00:58;;;;;;;;;;;4.70;99.90;;;;;;5119723;27;19914;-75
2022/11/09 02:03:34;;;;;;;176.30;84.93;;;4.70;99.90;;;;;;5102032;27;19907;-75
2022/11/09 02:06:04;;;;;;;193.32;91.85;;;4.70;99.90;;;;;;5118949;27;20030;-76
2022/11/09 02:08:30;;;;;;;194.05;93.22;;;4.80;99.90;;;;;;5085108;28;20536;-75
2022/11/09 02:11:11;;;;;;;208.27;99.55;;;5.10;99.90;;;;;;5116717;28;20034;-76
2022/11/09 02:13:38;;;;;;;;;;;5.10;99.90;;;;;;5098959;28;20031;-75
2022/11/09 02:16:10;;;;;;;204.95;94.47;;;4.90;99.90;;;;;;5098367;28;19912;-75
2022/11/09 02:18:46;;;;;;;193.30;92.80;;;4.90;99.90;;;;;;5098435;28;20038;-75
2022/11/09 02:21:12;;;;;;;190.13;91.55;;;4.90;99.90;;;;;;5116415;28;20088;-75
2022/11/09 02:23:38;;;;;;;181.90;87.93;;;4.80;99.90;;;;;;5116811;28;20066;-75
2022/11/09 02:26:09;;;;;;;174.27;85.90;;;4.70;99.90;;;;;;5116259;28;20027;-75
2022/11/09 02:28:38;;;;;;;177.48;86.70;;;4.70;99.90;;;;;;5098308;28;20078;-76
2022/11/09 02:31:06;;;;;;;190.07;95.15;;;4.60;99.90;;;;;;5116366;28;20035;-75
2022/11/09 02:33:59;;;;;;;189.20;86.47;;;4.60;99.90;;;;;;5098023;28;20031;-75
2022/11/09 02:36:25;;;;;;;171.35;84.32;;;4.60;99.90;;;;;;5116560;28;20031;-75
2022/11/09 02:38:54;;;;;;;173.52;81.28;;;4.60;99.90;;;;;;5098244;28;20030;-75
2022/11/09 02:41:21;;;;;;;166.20;80.22;;;4.70;99.90;;;;;;5098004;28;20027;-75
2022/11/09 02:43:49;;;;;;;172.05;82.13;;;4.90;99.90;;;;;;5098023;28;20027;-75
2022/11/09 02:46:31;;;;;;;157.98;75.65;;;5.00;99.90;;;;;;5097672;28;20027;-75
2022/11/09 02:48:57;;;;;;;149.23;70.90;;;5.10;99.90;;;;;;5097831;28;20038;-75
2022/11/09 02:51:23;;;;;;;146.27;68.63;;;5.10;99.90;;;;;;5116121;28;20385;-75
2022/11/09 02:53:50;;;;;;;138.82;64.35;;;5.10;99.90;;;;;;5097131;28;20051;-75
2022/11/09 02:56:16;;;;;;;128.02;62.88;;;5.10;99.90;;;;;;5097762;28;20031;-76
2022/11/09 02:58:42;;;;;;;112.60;56.85;;;5.10;99.90;;;;;;5097636;28;20071;-75
2022/11/09 03:01:08;;;;;;;99.25;51.80;;;5.20;99.90;;;;;;5097457;28;20036;-75
2022/11/09 03:03:35;;;;;;;108.20;54.95;;;5.30;99.90;;;;;;5097587;28;20500;-75
2022/11/09 03:06:01;;;;;;;102.32;53.25;;;5.30;99.90;;;;;;5097302;28;20031;-75
2022/11/09 03:08:28;;;;;;;112.18;57.47;;;5.40;99.90;;;;;;5113903;27;20400;-75
2022/11/09 03:10:54;;;;;;;111.88;56.95;;;5.30;99.90;;;;;;5117683;27;20388;-75
2022/11/09 03:13:20;;;;;;;127.90;63.78;;;5.30;99.90;;;;;;5136127;27;20023;-75
2022/11/09 03:15:46;;;;;;;121.00;59.75;;;5.30;99.90;;;;;;5136221;27;20019;-75
2022/11/09 03:18:12;;;;;;;121.80;57.42;;;5.30;99.90;;;;;;5117445;27;20030;-75
2022/11/09 03:20:38;;;;;;;116.75;57.80;;;5.40;99.90;;;;;;5117600;27;20448;-75
2022/11/09 03:23:04;;;;;;;96.57;51.15;;;5.40;99.90;;;;;;5117475;27;20108;-75
2022/11/09 03:25:32;;;;;;;100.10;50.88;;;5.50;99.90;;;;;;5117350;27;20118;-75
2022/11/09 03:28:01;;;;;;;96.32;50.70;;;5.60;99.90;;;;;;5117442;27;20034;-75
2022/11/09 03:30:27;;;;;;;82.72;43.47;;;5.50;99.90;;;;;;5117523;27;20046;-75
2022/11/09 03:33:01;;;;;;;94.90;46.38;;;5.50;99.90;;;;;;5117426;27;20094;-75
2022/11/09 03:35:27;;;;;;;99.68;46.53;;;5.50;99.90;;;;;;5136009;27;20023;-75
2022/11/09 03:37:53;;;;;;;139.15;51.28;;;5.60;99.90;;;;;;5135762;27;20026;-75
2022/11/09 03:40:19;;;;;;;134.05;49.95;;;5.60;99.90;;;;;;5117154;27;20394;-75
2022/11/09 03:42:48;;;;;;;203.35;61.75;;;5.70;99.90;;;;;;5117529;27;20126;-75
2022/11/09 03:45:15;;;;;;;188.43;56.38;;;5.70;99.90;;;;;;5116553;27;20062;-75
2022/11/09 03:47:42;;;;;;;134.60;50.78;;;5.60;99.90;;;;;;5135657;27;20056;-75
2022/11/09 03:50:08;;;;;;;215.15;61.08;;;5.50;99.90;;;;;;5135296;27;20030;-75
2022/11/09 03:52:34;;;;;;;120.63;50.42;;;5.50;99.90;;;;;;5135555;27;20135;-75
2022/11/09 03:55:01;;;;;;;177.55;64.10;;;5.50;99.90;;;;;;5135380;27;20483;-75
2022/11/09 03:57:26;;;;;;;145.20;60.88;;;5.50;99.90;;;;;;5135425;27;20027;-74
2022/11/09 03:59:52;;;;;;;192.02;70.90;;;5.70;99.90;;;;;;5135580;27;20015;-75
2022/11/09 04:02:18;;;;;;;188.90;68.03;;;5.50;99.90;;;;;;5135262;27;20027;-75
2022/11/09 04:04:44;;;;;;;162.70;67.50;;;5.50;99.90;;;;;;5134526;27;20483;-75
2022/11/09 04:07:10;;;;;;;168.05;69.13;;;5.40;99.90;;;;;;5129418;27;20441;-75
2022/11/09 04:09:36;;;;;;;178.15;74.85;;;5.40;99.90;;;;;;5114858;28;20126;-74
2022/11/09 04:12:03;;;;;;;144.82;64.18;;;5.40;99.90;;;;;;5114504;28;20066;-76
2022/11/09 04:14:29;;;;;;;156.30;67.68;;;5.30;99.90;;;;;;5114724;28;20066;-75
2022/11/09 04:16:55;;;;;;;156.55;64.80;;;5.30;99.90;;;;;;5114772;28;20051;-75
2022/11/09 04:19:20;;;;;;;150.52;63.03;;;5.40;99.90;;;;;;5114586;28;20059;-75
2022/11/09 04:21:46;;;;;;;161.00;68.30;;;5.60;99.90;;;;;;5114701;28;20055;-75
2022/11/09 04:24:12;;;;;;;143.38;64.68;;;5.70;99.90;;;;;;5114326;28;20028;-75
2022/11/09 04:26:38;;;;;;;177.50;73.05;;;5.70;99.90;;;;;;5114723;28;20027;-74
2022/11/09 04:29:04;;;;;;;200.60;75.10;;;5.70;99.90;;;;;;5096082;28;20039;-74
2022/11/09 04:31:30;;;;;;;222.38;79.95;;;5.50;99.90;;;;;;5114446;28;20032;-74
2022/11/09 04:33:56;;;;;;;246.82;86.18;;;5.40;99.90;;;;;;5114369;28;20031;-74
2022/11/09 04:36:22;;;;;;;213.52;83.00;;;5.40;99.90;;;;;;5114521;28;20128;-74
2022/11/09 04:38:48;;;;;;;171.65;76.55;;;5.40;99.90;;;;;;5114412;28;20477;-75
2022/11/09 04:41:14;;;;;;;167.73;73.88;;;5.40;99.90;;;;;;5114054;28;20054;-75
2022/11/09 04:43:40;;;;;;;177.65;74.40;;;5.50;99.90;;;;;;5114409;28;20077;-76
2022/11/09 04:46:06;;;;;;;179.43;74.10;;;5.40;99.90;;;;;;5114434;28;20354;-75
2022/11/09 04:48:33;;;;;;;154.88;66.95;;;5.50;99.90;;;;;;5114182;28;20043;-75
2022/11/09 04:51:07;;;;;;;181.90;73.50;;;5.50;99.90;;;;;;5114078;28;20058;-75
2022/11/09 04:53:34;;;;;;;173.73;74.03;;;5.40;99.90;;;;;;5114328;28;20644;-75
2022/11/09 04:56:00;;;;;;;158.73;69.63;;;5.60;99.90;;;;;;5114058;28;20027;-75
2022/11/09 04:58:26;;;;;;;168.80;71.55;;;5.60;99.90;;;;;;5114073;28;20035;-75
2022/11/09 05:00:53;;;;;;;163.80;70.18;;;5.50;99.90;;;;;;5114304;28;20035;-75
2022/11/09 05:03:19;;;;;;;152.88;66.30;;;5.40;99.90;;;;;;5096164;28;20035;-75
2022/11/09 05:05:46;;;;;;;143.77;64.22;;;5.40;99.90;;;;;;5114007;28;20120;-75
2022/11/09 05:08:12;;;;;;;147.07;68.25;;;5.40;99.90;;;;;;5128171;28;20038;-74
2022/11/09 05:10:38;;;;;;;153.10;67.25;;;5.60;99.90;;;;;;5134825;28;20472;-75
2022/11/09 05:13:06;;;;;;;140.63;64.65;;;5.80;99.90;;;;;;5134442;28;20047;-75
2022/11/09 05:15:33;;;;;;;170.48;74.35;;;6.00;99.90;;;;;;5116916;27;20094;-74
2022/11/09 05:18:00;;;;;;;145.50;67.85;;;5.80;99.90;;;;;;5138163;27;20028;-74
2022/11/09 05:20:27;;;;;;;151.27;71.25;;;5.70;99.90;;;;;;5138346;27;20491;-75
2022/11/09 05:25:38;;;;;;;149.43;75.72;;;5.60;99.90;;;;;;5138417;27;20027;-75
2022/11/09 05:28:04;;;;;;;154.98;76.90;;;5.80;99.90;;;;;;5138145;27;20030;-75
2022/11/09 05:30:30;;;;;;;158.63;83.32;;;6.00;99.90;;;;;;5138047;27;20050;-75
2022/11/09 05:32:56;;;;;;;135.40;66.43;;;5.90;99.90;;;;;;5138008;27;20024;-75
2022/11/09 05:35:22;;;;;;;121.70;57.25;;;5.90;99.90;;;;;;5138028;27;20027;-75
2022/11/09 05:37:49;;;;;;;121.28;58.55;;;6.00;99.90;;;;;;5137992;27;20106;-75
2022/11/09 05:40:16;;;;;;;115.63;52.60;;;6.00;99.90;;;;;;5137713;27;20384;-75
2022/11/09 05:42:43;;;;;;;119.53;52.95;;;6.20;99.90;;;;;;5137990;27;20031;-75
2022/11/09 05:45:11;;;;;;;114.93;51.78;;;6.30;99.90;;;;;;5137784;27;20030;-75
2022/11/09 05:47:42;;;;;;;111.80;51.80;;;6.20;99.90;;;;;;5137990;27;20476;-75
2022/11/09 05:50:11;;;;;;;118.28;52.97;;;6.20;99.90;;;;;;5137586;27;20027;-75
2022/11/09 05:52:37;;;;;;;104.68;51.15;;;6.20;99.90;;;;;;5137662;27;20051;-75
2022/11/09 05:55:04;;;;;;;102.22;50.55;;;6.40;99.90;;;;;;5137648;27;20140;-75
2022/11/09 05:57:30;;;;;;;100.75;46.10;;;6.50;99.90;;;;;;5137604;27;20023;-75
2022/11/09 05:59:56;;;;;;;118.22;54.38;;;6.50;99.90;;;;;;5137543;27;20415;-75
2022/11/09 06:02:22;;;;;;;109.75;50.10;;;6.40;99.90;;;;;;5137752;27;20035;-75
2022/11/09 06:04:48;;;;;;;121.95;50.85;;;6.20;99.90;;;;;;5137545;27;20411;-76
2022/11/09 06:07:14;;;;;;;117.32;50.70;;;6.10;99.90;;;;;;5112575;28;20028;-75
2022/11/09 06:09:40;;;;;;;123.00;51.45;;;6.10;99.90;;;;;;5116878;28;20024;-75
2022/11/09 06:12:07;;;;;;;114.00;51.72;;;6.30;99.90;;;;;;5116718;28;20028;-75
2022/11/09 06:14:33;;;;;;;122.93;55.83;;;6.40;99.90;;;;;;5116811;28;20106;-75
2022/11/09 06:16:59;;;;;;;122.63;51.50;;;6.40;99.90;;;;;;5105867;28;20087;-76
2022/11/09 06:19:26;;;;;;;125.85;55.97;;;6.30;99.90;;;;;;5097029;28;20081;-75
2022/11/09 06:21:53;;;;;;;138.30;63.30;;;6.40;99.90;;;;;;5099553;28;20039;-75
2022/11/09 06:24:18;;;;;;;136.48;62.05;;;6.10;99.90;;;;;;5096034;28;20020;-75
2022/11/09 06:26:44;;;;;;;136.73;61.35;;;6.30;99.90;;;;;;5090781;28;20061;-76
2022/11/09 06:29:10;;;;;;;137.05;61.22;;;6.40;99.90;;;;;;5095544;28;20032;-75
2022/11/09 06:31:36;;;;;;;148.45;63.03;;;6.40;99.90;;;;;;5106352;28;20038;-76
2022/11/09 06:34:03;;;;;;;139.10;62.65;;;6.50;99.90;;;;;;5116239;28;20034;-75
2022/11/09 06:36:28;;;;;;;154.25;63.13;;;6.60;99.90;;;;;;5109087;27;20056;-76
2022/11/09 06:38:54;;;;;;;152.75;63.85;;;6.40;99.90;;;;;;5105362;28;20469;-75
2022/11/09 06:41:20;;;;;;;141.95;60.70;;;6.30;99.90;;;;;;5115752;28;20027;-75
2022/11/09 06:43:46;;;;;;;180.52;68.88;;;6.20;99.90;;;;;;5109083;27;20137;-75
2022/11/09 06:46:16;;;;;;;144.75;62.90;;;6.20;99.90;;;;;;5107372;28;20012;-76
2022/11/09 06:48:43;;;;;;;153.93;68.00;;;6.30;99.90;;;;;;5102971;28;20114;-76
2022/11/09 06:51:10;;;;;;;177.25;73.40;;;6.30;99.90;;;;;;5115520;28;20027;-76
2022/11/09 06:53:37;;;;;;;152.85;66.65;;;6.20;99.90;;;;;;5116770;28;20019;-75
2022/11/09 06:56:04;;;;;;;159.45;72.72;;;6.40;99.90;;;;;;5109569;28;20078;-76
2022/11/09 06:58:31;;;;;;;269.98;81.05;;;6.70;99.90;;;;;;5099330;27;20063;-75
2022/11/09 07:00:57;;;;;;;159.35;70.05;;;6.60;99.90;;;;;;5103336;28;20454;-76
2022/11/09 07:03:23;;;;;;;134.15;63.05;;;6.50;99.90;;;;;;5117346;28;20059;-76
2022/11/09 07:05:51;;;;;;;137.65;62.20;;;6.50;99.90;;;;;;5117577;28;20024;-76
2022/11/09 07:08:18;;;;;;;154.65;64.38;;;6.70;99.90;;;;;;5099001;28;20028;-76
2022/11/09 07:10:46;;;;;;;143.73;62.85;;;7.00;99.90;;;;;;5107129;28;20020;-77
2022/11/09 07:13:13;;;;;;;143.88;64.57;;;7.10;99.90;;;;;;5113117;28;20072;-76
2022/11/09 07:15:39;;;;;;;147.05;64.22;;;7.20;99.90;;;;;;5110173;28;20107;-76
2022/11/09 07:18:08;;;;;;;165.18;71.00;;;7.20;99.90;;;;;;5110993;28;20456;-76
2022/11/09 07:20:34;;;;;;;152.88;69.32;;;7.10;99.90;;;;;;5100992;28;20504;-76
2022/11/09 07:23:00;;;;;;;165.30;70.18;;;7.10;99.90;;;;;;5123682;27;20028;-76
2022/11/09 07:25:26;;;;;;;168.55;71.30;;;7.30;99.90;;;;;;5101062;27;20024;-75
2022/11/09 07:27:52;;;;;;;189.20;73.80;;;7.20;99.90;;;;;;5111451;28;20028;-76
2022/11/09 07:30:19;;;;;;;167.55;73.13;;;7.20;99.90;;;;;;5124851;27;20055;-76
2022/11/09 07:32:44;;;;;;;172.60;72.65;;;7.20;99.90;;;;;;5122341;27;20250;-76
2022/11/09 07:35:11;;;;;;;176.70;73.47;;;7.40;99.90;;;;;;5092282;28;20037;-76
2022/11/09 07:37:37;;;;;;;174.23;73.05;;;7.60;99.90;;;;;;5109316;28;20027;-76
2022/11/09 07:40:03;;;;;;;174.32;74.25;;;7.60;99.90;;;;;;5110311;28;20016;-76
2022/11/09 07:42:30;;;;;;;186.95;74.38;;;7.70;99.90;;;;;;5087366;28;20024;-76
2022/11/09 07:44:56;;;;;;;210.52;79.43;;;7.60;99.90;;;;;;5124273;27;20071;-76
2022/11/09 07:47:22;;;;;;;226.32;84.03;;;7.70;99.90;;;;;;5118013;27;20450;-76
2022/11/09 07:49:48;;;;;;;240.45;78.00;;;7.50;99.90;;;;;;5111308;28;20024;-77
2022/11/09 07:52:14;;;;;;;185.40;73.25;;;7.40;99.90;;;;;;5109522;28;20036;-76
2022/11/09 07:54:40;;;;;;;161.27;70.60;;;7.60;99.90;;;;;;5106093;28;20028;-76
2022/11/09 07:57:06;;;;;;;218.10;74.40;;;7.60;99.90;;;;;;5101267;28;20024;-77
2022/11/09 07:59:32;;;;;;;169.63;70.82;;;7.50;99.90;;;;;;5112922;28;20036;-77
2022/11/09 08:01:58;;;;;;;189.50;65.05;;;7.50;99.90;;;;;;5106269;28;20516;-77
2022/11/09 08:04:27;;;;;;;164.70;66.15;;;7.60;99.90;;;;;;5093329;28;20047;-77
2022/11/09 08:06:53;;;;;;;149.85;63.88;;;7.70;99.90;;;;;;5093591;28;20016;-74
2022/11/09 08:09:19;;;;;;;140.18;65.50;;;7.80;99.90;;;;;;5114218;28;20019;-75
2022/11/09 08:11:45;;;;;;;167.07;70.55;;;7.80;99.90;;;;;;5086088;28;20468;-76
2022/11/09 08:14:11;;;;;;;122.75;59.35;;;7.90;99.90;;;;;;5118176;27;20058;-75
2022/11/09 08:16:37;;;;;;;146.85;65.82;;;8.10;99.90;;;;;;5123313;27;20027;-75
2022/11/09 08:19:03;;;;;;;180.60;71.55;;;8.20;99.90;;;;;;5122503;27;20380;-75
2022/11/09 08:21:29;;;;;;;154.30;66.78;;;8.30;99.90;;;;;;5098940;28;20028;-75
2022/11/09 08:23:55;;;;;;;152.25;67.45;;;8.30;99.90;;;;;;5095576;28;20423;-75
2022/11/09 08:26:21;;;;;;;196.35;75.68;;;8.60;99.90;;;;;;5112623;28;20035;-74
2022/11/09 08:28:47;;;;;;;219.73;77.95;;;8.90;99.90;;;;;;5112283;28;20077;-74
2022/11/09 08:31:12;;;;;;;196.40;79.65;;;9.00;99.90;;;;;;5108421;28;20069;-75
2022/11/09 08:33:40;;;;;;;163.75;67.25;;;9.20;99.90;;;;;;5114398;28;20457;-75
2022/11/09 08:36:13;;;;;;;138.38;61.53;;;9.30;99.90;;;;;;5115073;28;20019;-76
2022/11/09 08:38:39;;;;;;;156.70;64.20;;;9.30;99.90;;;;;;5115080;28;20023;-75
2022/11/09 08:41:05;;;;;;;166.32;67.65;;;9.70;99.90;;;;;;5097799;28;20020;-75
2022/11/09 08:43:32;;;;;;;145.85;61.75;;;9.80;99.90;;;;;;5113717;28;20038;-75
2022/11/09 08:46:01;;;;;;;143.15;62.55;;;10.00;99.90;;;;;;5101983;28;20027;-74
2022/11/09 08:48:27;;;;;;;130.05;58.55;;;10.20;99.90;;;;;;5104123;28;20024;-75
2022/11/09 08:50:56;;;;;;;133.48;56.85;;;10.40;99.90;;;;;;5116943;27;20025;-75
2022/11/09 08:53:26;;;;;;;128.13;58.75;;;10.50;99.90;;;;;;5116097;27;20024;-74
2022/11/09 08:55:56;;;;;;;119.65;54.65;;;10.70;99.90;;;;;;5097235;28;20582;-74
2022/11/09 08:58:24;;;;;;;115.53;55.63;;;10.90;99.90;;;;;;5112565;28;20040;-74
2022/11/09 09:00:50;;;;;;;114.75;56.53;;;11.10;99.90;;;;;;5115855;28;20020;-74
2022/11/09 09:03:18;;;;;;;116.03;57.08;;;11.10;99.90;;;;;;5117241;28;20205;-75
2022/11/09 09:05:44;;;;;;;116.63;54.67;;;11.20;99.90;;;;;;5109642;28;20026;-74
2022/11/09 09:08:14;;;;;;;94.68;47.10;;;11.50;99.90;;;;;;5104144;28;20115;-74
2022/11/09 09:10:40;;;;;;;103.90;50.40;;;11.60;99.90;;;;;;5081406;28;20032;-74
2022/11/09 09:13:09;;;;;;;110.30;49.67;;;11.80;99.90;;;;;;5079362;28;20040;-74
2022/11/09 09:15:35;;;;;;;108.25;50.63;;;11.80;99.90;;;;;;5096609;28;20020;-74
2022/11/09 09:18:03;;;;;;;94.30;48.95;;;11.70;99.90;;;;;;5093949;28;20035;-74
2022/11/09 09:20:29;;;;;;;126.47;58.35;;;11.90;99.90;;;;;;5076797;28;20034;-75
2022/11/09 09:22:58;;;;;;;107.45;50.17;;;11.70;99.90;;;;;;5078249;28;20020;-75
2022/11/09 09:25:25;;;;;;;102.10;51.22;;;12.50;99.90;;;;;;5097355;28;20469;-74
2022/11/09 09:27:50;;;;;;;91.40;48.92;;;13.30;99.90;;;;;;5094211;28;20067;-74
2022/11/09 09:30:17;;;;;;;92.53;50.78;;;14.30;99.90;;;;;;5095868;28;20059;-74
2022/11/09 09:32:43;;;;;;;77.35;42.03;;;15.10;99.90;;;;;;5102792;28;20016;-75
2022/11/09 09:35:10;;;;;;;75.20;41.95;;;15.80;97.40;;;;;;5106143;28;20020;-74
2022/11/09 09:37:36;;;;;;;76.75;41.38;;;16.10;95.00;;;;;;5093979;28;20466;-74
2022/11/09 09:40:02;;;;;;;69.55;39.63;;;16.70;93.10;;;;;;5096712;28;20058;-74
2022/11/09 09:42:35;;;;;;;71.25;38.00;;;17.20;91.80;;;;;;5097266;28;20072;-73
2022/11/09 09:45:16;;;;;;;76.03;41.00;;;18.00;90.40;;;;;;5079853;28;20024;-73
2022/11/09 09:48:18;;;;;;;64.25;36.03;;;18.50;83.40;;;;;;5091053;28;20375;-74
2022/11/09 09:50:53;;;;;;;;;;;19.40;78.90;;;;;;5086895;28;20472;-73
2022/11/09 09:53:39;;;;;;;66.90;34.72;;;19.60;76.10;;;;;;5077639;28;19908;-73
2022/11/09 09:56:13;;;;;;;64.38;32.72;;;19.80;74.00;;;;;;5094778;28;20032;-74
2022/11/09 09:58:46;;;;;;;59.45;32.08;;;20.00;71.70;;;;;;5107762;28;20612;-74
2022/11/09 10:01:18;;;;;;;53.10;30.42;;;20.20;69.70;;;;;;5117182;28;20032;-73
2022/11/09 10:03:46;;;;;;;55.08;30.10;;;20.80;67.40;;;;;;5118041;27;20221;-74
2022/11/09 10:07:09;;;;;;;70.18;31.75;;;20.60;67.50;;;;;;5119294;27;20031;-74
2022/11/09 10:10:12;;;;;;;54.20;31.23;;;20.50;66.60;;;;;;5033636;28;20029;-74
2022/11/09 10:13:04;;;;;;;58.92;31.33;;;20.40;65.40;;;;;;5033703;28;20037;-73
2022/11/09 10:15:32;;;;;;;55.70;30.83;;;20.40;67.30;;;;;;5034066;28;20060;-74
2022/11/09 10:18:35;;;;;;;50.95;31.30;;;20.30;66.30;;;;;;5030370;28;20034;-74
2022/11/09 10:21:03;;;;;;;57.72;30.25;;;19.80;66.90;;;;;;5008605;28;20040;-74
2022/11/09 10:23:47;;;;;;;61.50;30.88;;;19.80;68.40;;;;;;5019949;28;20036;-74
2022/11/09 10:26:16;;;;;;;58.63;29.70;;;20.30;67.10;;;;;;5013396;28;20158;-74
2022/11/09 10:28:45;;;;;;;62.75;29.88;;;20.30;66.00;;;;;;5023287;28;20025;-76
2022/11/09 10:31:20;;;;;;;65.22;32.30;;;20.50;65.90;;;;;;5003170;28;20064;-76
2022/11/09 10:33:53;;;;;;;57.85;29.40;;;20.80;67.00;;;;;;5016108;28;20038;-76
2022/11/09 10:36:20;;;;;;;53.35;30.17;;;21.40;64.00;;;;;;5013709;28;20045;-76
2022/11/09 10:38:49;;;;;;;55.45;29.02;;;21.80;63.30;;;;;;5013502;28;20026;-75
2022/11/09 10:41:39;;;;;;;51.22;28.45;;;22.20;60.70;;;;;;5114571;28;20101;-76
2022/11/09 10:44:24;;;;;;;49.63;24.92;;;22.70;58.80;;;;;;5107602;28;20050;-76
2022/11/09 10:47:15;;;;;;;32.97;18.70;;;23.20;56.40;;;;;;5116850;28;20046;-75
2022/11/09 10:50:18;;;;;;;45.10;21.00;;;23.00;52.40;;;;;;5116137;28;20051;-75
2022/11/09 10:53:22;;;;;;;39.35;17.98;;;23.40;53.70;;;;;;5116062;28;20084;-75
2022/11/09 10:56:13;;;;;;;25.33;14.10;;;22.80;50.40;;;;;;5113031;27;20046;-75
2022/11/09 10:58:58;;;;;;;22.45;12.68;;;22.60;52.30;;;;;;5104382;28;20063;-75
2022/11/09 11:01:42;;;;;;;29.05;14.65;;;23.20;49.60;;;;;;5103755;28;20047;-75
2022/11/09 11:04:28;;;;;;;44.67;16.83;;;23.40;51.30;;;;;;5107086;28;20080;-75
2022/11/09 11:07:14;;;;;;;32.03;16.25;;;24.10;48.60;;;;;;5111131;28;20090;-75
2022/11/09 11:10:19;;;;;;;30.73;12.23;;;23.80;47.50;;;;;;5113251;28;20506;-75
2022/11/09 11:13:04;;;;;;;30.23;12.23;;;23.80;46.00;;;;;;5106312;28;20092;-75
2022/11/09 11:15:49;;;;;;;33.47;14.88;;;24.20;46.50;;;;;;5108063;28;20115;-75
2022/11/09 11:18:35;;;;;;;30.63;14.45;;;24.50;46.90;;;;;;5103956;27;20046;-75
2022/11/09 11:21:24;;;;;;;33.35;16.30;;;25.10;47.00;;;;;;5115460;27;20087;-75
2022/11/09 11:24:16;;;;;;;35.15;18.63;;;25.30;45.20;;;;;;5090724;27;20128;-75
2022/11/09 11:27:10;;;;;;;24.52;16.92;;;25.60;45.90;;;;;;5109559;27;20080;-75
2022/11/09 11:30:17;;;;;;;42.65;20.95;;;25.60;46.20;;;;;;5107368;28;20046;-75
2022/11/09 11:33:09;;;;;;;27.85;16.38;;;26.10;46.20;;;;;;5111517;27;20030;-75
2022/11/09 11:36:10;;;;;;;36.40;19.98;;;25.90;45.30;;;;;;5124060;27;20052;-75
2022/11/09 11:39:20;;;;;;;20.92;15.13;;;26.30;43.80;;;;;;5111275;27;20416;-75
2022/11/09 11:42:17;;;;;;;36.67;16.98;;;26.40;42.00;;;;;;5104100;28;20400;-75
2022/11/09 11:45:04;;;;;;;34.13;17.70;;;25.60;44.70;;;;;;5100857;28;20081;-75
2022/11/09 11:48:20;;;;;;;30.45;17.52;;;25.00;45.20;;;;;;5101047;28;20069;-75
2022/11/09 11:51:20;;;;;;;28.45;16.17;;;25.70;44.10;;;;;;5108025;28;20051;-75
2022/11/09 11:54:23;;;;;;;20.58;12.70;;;25.30;44.30;;;;;;5097551;28;20177;-76
2022/11/09 11:57:26;;;;;;;26.33;15.80;;;25.30;41.70;;;;;;5104573;28;20039;-75
2022/11/09 12:00:16;;;;;;;40.03;25.40;;;25.50;43.00;;;;;;5095635;28;20417;-75
2022/11/09 12:03:37;;;;;;;29.33;18.08;;;26.20;46.70;;;;;;5113538;28;20054;-75
2022/11/09 12:06:22;;;;;;;35.85;16.50;;;26.50;43.30;;;;;;5110611;28;20043;-75
2022/11/09 12:09:15;;;;;;;30.60;14.75;;;26.20;43.70;;;;;;5100668;28;20116;-75
2022/11/09 12:12:08;;;;;;;28.35;15.77;;;26.70;43.30;;;;;;5097301;28;20031;-76
2022/11/09 12:15:06;;;;;;;21.27;13.40;;;26.80;41.90;;;;;;5115315;28;20075;-76
2022/11/09 12:18:14;;;;;;;25.45;15.18;;;26.80;41.60;;;;;;5112171;28;20138;-76
2022/11/09 12:21:02;;;;;;;24.85;13.10;;;26.70;41.00;;;;;;5108213;28;20043;-75
2022/11/09 12:24:07;;;;;;;37.95;15.73;;;26.40;40.90;;;;;;5104169;28;20132;-76
2022/11/09 12:27:26;;;;;;;23.77;13.45;;;25.50;42.90;;;;;;5096806;28;20047;-76
2022/11/09 12:30:23;;;;;;;29.40;15.23;;;26.00;42.00;;;;;;5102131;28;20043;-76
2022/11/09 12:33:13;;;;;;;24.52;11.32;;;26.00;41.80;;;;;;5113332;28;20050;-76
2022/11/09 12:36:21;;;;;;;21.95;11.48;;;26.40;38.40;;;;;;5105908;28;20088;-76
2022/11/09 12:39:28;;;;;;;16.73;11.80;;;26.00;38.80;;;;;;5104910;28;20035;-76
2022/11/09 12:42:17;;;;;;;23.30;12.73;;;26.00;42.00;;;;;;5095197;28;20097;-76
2022/11/09 12:45:17;;;;;;;20.20;11.73;;;25.70;41.50;;;;;;5094309;28;20050;-76
2022/11/09 12:48:11;;;;;;;26.92;12.95;;;25.40;41.50;;;;;;5119002;28;20034;-76
2022/11/09 12:50:57;;;;;;;25.77;11.88;;;25.80;41.60;;;;;;5114703;28;20514;-76
2022/11/09 12:53:42;;;;;;;21.52;11.63;;;25.60;40.10;;;;;;5110666;28;20038;-76
2022/11/09 12:56:35;;;;;;;35.03;14.68;;;25.60;41.70;;;;;;5135406;27;20496;-76
2022/11/09 12:59:25;;;;;;;24.50;11.15;;;25.70;39.60;;;;;;5134970;28;20293;-76